sensor_id;sensor_type;location;lat;lon;timestamp;P1;durP1;ratioP1;P2;durP2;ratioP2
65156;SDS011;52745;49.794;18.258;2023-03-14T00:00:14;4.82;;;2.55;;
65156;SDS011;52745;49.794;18.258;2023-03-14T00:03:02;5.72;;;2.30;;
65156;SDS011;52745;49.794;18.258;2023-03-14T00:05:33;3.83;;;1.73;;
65156;SDS011;52745;49.794;18.258;2023-03-14T00:10:35;5.57;;;1.70;;
65156;SDS011;52745;49.794;18.258;2023-03-14T00:13:06;7.15;;;2.38;;
65156;SDS011;52745;49.794;18.258;2023-03-14T00:15:36;4.20;;;1.63;;
65156;SDS011;52745;49.794;18.258;2023-03-14T00:18:03;3.97;;;1.75;;
65156;SDS011;52745;49.794;18.258;2023-03-14T00:20:33;4.18;;;2.00;;
65156;SDS011;52745;49.794;18.258;2023-03-14T00:23:07;4.47;;;2.08;;
65156;SDS011;52745;49.794;18.258;2023-03-14T00:25:34;5.15;;;1.70;;
65156;SDS011;52745;49.794;18.258;2023-03-14T00:28:02;4.55;;;2.05;;
65156;SDS011;52745;49.794;18.258;2023-03-14T00:30:28;3.80;;;2.08;;
65156;SDS011;52745;49.794;18.258;2023-03-14T00:32:56;4.57;;;2.35;;
65156;SDS011;52745;49.794;18.258;2023-03-14T00:35:25;4.30;;;2.20;;
65156;SDS011;52745;49.794;18.258;2023-03-14T00:37:53;5.28;;;1.77;;
65156;SDS011;52745;49.794;18.258;2023-03-14T00:40:20;3.05;;;1.67;;
65156;SDS011;52745;49.794;18.258;2023-03-14T00:42:49;4.03;;;1.95;;
65156;SDS011;52745;49.794;18.258;2023-03-14T00:45:16;7.45;;;2.10;;
65156;SDS011;52745;49.794;18.258;2023-03-14T00:47:43;5.88;;;2.10;;
65156;SDS011;52745;49.794;18.258;2023-03-14T00:50:11;5.70;;;2.60;;
65156;SDS011;52745;49.794;18.258;2023-03-14T00:52:39;5.35;;;2.20;;
65156;SDS011;52745;49.794;18.258;2023-03-14T00:55:06;6.43;;;1.90;;
65156;SDS011;52745;49.794;18.258;2023-03-14T00:57:34;4.03;;;1.70;;
65156;SDS011;52745;49.794;18.258;2023-03-14T01:00:01;3.53;;;1.88;;
65156;SDS011;52745;49.794;18.258;2023-03-14T01:02:32;2.88;;;1.75;;
65156;SDS011;52745;49.794;18.258;2023-03-14T01:04:58;5.13;;;1.83;;
65156;SDS011;52745;49.794;18.258;2023-03-14T01:07:26;3.83;;;1.85;;
65156;SDS011;52745;49.794;18.258;2023-03-14T01:09:56;3.35;;;1.77;;
65156;SDS011;52745;49.794;18.258;2023-03-14T01:12:23;3.40;;;1.73;;
65156;SDS011;52745;49.794;18.258;2023-03-14T01:14:50;2.85;;;1.63;;
65156;SDS011;52745;49.794;18.258;2023-03-14T01:17:18;3.85;;;2.30;;
65156;SDS011;52745;49.794;18.258;2023-03-14T01:19:48;4.70;;;1.73;;
65156;SDS011;52745;49.794;18.258;2023-03-14T01:22:16;4.65;;;1.83;;
65156;SDS011;52745;49.794;18.258;2023-03-14T01:24:45;5.53;;;2.40;;
65156;SDS011;52745;49.794;18.258;2023-03-14T01:27:16;8.25;;;2.40;;
65156;SDS011;52745;49.794;18.258;2023-03-14T01:29:43;3.80;;;1.70;;
65156;SDS011;52745;49.794;18.258;2023-03-14T01:32:10;3.28;;;1.70;;
65156;SDS011;52745;49.794;18.258;2023-03-14T01:34:40;3.33;;;1.88;;
65156;SDS011;52745;49.794;18.258;2023-03-14T01:37:11;5.05;;;2.28;;
65156;SDS011;52745;49.794;18.258;2023-03-14T01:39:41;4.25;;;2.17;;
65156;SDS011;52745;49.794;18.258;2023-03-14T01:42:14;5.85;;;2.08;;
65156;SDS011;52745;49.794;18.258;2023-03-14T01:44:57;7.22;;;2.30;;
65156;SDS011;52745;49.794;18.258;2023-03-14T01:47:33;3.78;;;1.95;;
65156;SDS011;52745;49.794;18.258;2023-03-14T01:50:08;4.50;;;2.30;;
65156;SDS011;52745;49.794;18.258;2023-03-14T01:52:46;4.60;;;1.88;;
65156;SDS011;52745;49.794;18.258;2023-03-14T01:55:17;3.88;;;2.38;;
65156;SDS011;52745;49.794;18.258;2023-03-14T01:58:06;4.88;;;1.90;;
65156;SDS011;52745;49.794;18.258;2023-03-14T02:00:42;5.78;;;2.20;;
65156;SDS011;52745;49.794;18.258;2023-03-14T02:03:16;4.57;;;1.80;;
65156;SDS011;52745;49.794;18.258;2023-03-14T02:05:46;4.50;;;1.83;;
65156;SDS011;52745;49.794;18.258;2023-03-14T02:08:18;6.55;;;1.95;;
65156;SDS011;52745;49.794;18.258;2023-03-14T02:11:09;4.50;;;1.60;;
65156;SDS011;52745;49.794;18.258;2023-03-14T02:13:54;3.92;;;1.77;;
65156;SDS011;52745;49.794;18.258;2023-03-14T02:16:34;3.10;;;1.85;;
65156;SDS011;52745;49.794;18.258;2023-03-14T02:19:33;3.53;;;2.00;;
65156;SDS011;52745;49.794;18.258;2023-03-14T02:22:40;4.93;;;2.00;;
65156;SDS011;52745;49.794;18.258;2023-03-14T02:25:16;2.95;;;1.50;;
65156;SDS011;52745;49.794;18.258;2023-03-14T02:27:55;3.63;;;1.63;;
65156;SDS011;52745;49.794;18.258;2023-03-14T02:30:25;3.80;;;1.80;;
65156;SDS011;52745;49.794;18.258;2023-03-14T02:35:36;3.00;;;1.77;;
65156;SDS011;52745;49.794;18.258;2023-03-14T02:41:01;3.33;;;2.00;;
65156;SDS011;52745;49.794;18.258;2023-03-14T02:43:34;3.80;;;1.63;;
65156;SDS011;52745;49.794;18.258;2023-03-14T02:46:08;11.45;;;1.80;;
65156;SDS011;52745;49.794;18.258;2023-03-14T02:48:49;6.53;;;2.03;;
65156;SDS011;52745;49.794;18.258;2023-03-14T02:51:29;3.53;;;2.03;;
65156;SDS011;52745;49.794;18.258;2023-03-14T02:53:59;3.28;;;1.60;;
65156;SDS011;52745;49.794;18.258;2023-03-14T02:56:26;4.10;;;1.90;;
65156;SDS011;52745;49.794;18.258;2023-03-14T02:58:54;3.45;;;1.63;;
65156;SDS011;52745;49.794;18.258;2023-03-14T03:01:35;2.40;;;1.45;;
65156;SDS011;52745;49.794;18.258;2023-03-14T03:04:02;5.10;;;1.83;;
65156;SDS011;52745;49.794;18.258;2023-03-14T03:06:31;5.10;;;2.17;;
65156;SDS011;52745;49.794;18.258;2023-03-14T03:08:58;3.28;;;1.50;;
65156;SDS011;52745;49.794;18.258;2023-03-14T03:11:24;4.20;;;2.10;;
65156;SDS011;52745;49.794;18.258;2023-03-14T03:13:51;6.07;;;1.65;;
65156;SDS011;52745;49.794;18.258;2023-03-14T03:16:19;3.30;;;1.70;;
65156;SDS011;52745;49.794;18.258;2023-03-14T03:18:46;3.67;;;1.90;;
65156;SDS011;52745;49.794;18.258;2023-03-14T03:21:16;3.17;;;2.10;;
65156;SDS011;52745;49.794;18.258;2023-03-14T03:23:44;4.53;;;2.30;;
65156;SDS011;52745;49.794;18.258;2023-03-14T03:26:12;4.30;;;2.38;;
65156;SDS011;52745;49.794;18.258;2023-03-14T03:28:38;6.13;;;2.00;;
65156;SDS011;52745;49.794;18.258;2023-03-14T03:31:07;5.55;;;1.85;;
65156;SDS011;52745;49.794;18.258;2023-03-14T03:33:37;3.45;;;1.73;;
65156;SDS011;52745;49.794;18.258;2023-03-14T03:36:06;4.20;;;1.70;;
65156;SDS011;52745;49.794;18.258;2023-03-14T03:38:36;5.25;;;2.10;;
65156;SDS011;52745;49.794;18.258;2023-03-14T03:41:06;4.47;;;2.00;;
65156;SDS011;52745;49.794;18.258;2023-03-14T03:43:36;3.13;;;1.70;;
65156;SDS011;52745;49.794;18.258;2023-03-14T03:46:06;4.35;;;1.70;;
65156;SDS011;52745;49.794;18.258;2023-03-14T03:48:34;4.25;;;1.50;;
65156;SDS011;52745;49.794;18.258;2023-03-14T03:51:05;3.97;;;2.00;;
65156;SDS011;52745;49.794;18.258;2023-03-14T03:53:39;4.43;;;1.80;;
65156;SDS011;52745;49.794;18.258;2023-03-14T03:56:10;3.40;;;2.03;;
65156;SDS011;52745;49.794;18.258;2023-03-14T03:58:44;4.82;;;2.30;;
65156;SDS011;52745;49.794;18.258;2023-03-14T04:01:12;4.22;;;1.95;;
65156;SDS011;52745;49.794;18.258;2023-03-14T04:03:42;5.18;;;2.03;;
65156;SDS011;52745;49.794;18.258;2023-03-14T04:06:10;6.72;;;2.03;;
65156;SDS011;52745;49.794;18.258;2023-03-14T04:08:40;7.68;;;2.00;;
65156;SDS011;52745;49.794;18.258;2023-03-14T04:11:13;6.90;;;2.00;;
65156;SDS011;52745;49.794;18.258;2023-03-14T04:14:06;4.13;;;2.17;;
65156;SDS011;52745;49.794;18.258;2023-03-14T04:16:34;4.60;;;1.80;;
65156;SDS011;52745;49.794;18.258;2023-03-14T04:19:12;3.70;;;2.03;;
65156;SDS011;52745;49.794;18.258;2023-03-14T04:21:43;3.45;;;1.90;;
65156;SDS011;52745;49.794;18.258;2023-03-14T04:24:15;5.78;;;2.05;;
65156;SDS011;52745;49.794;18.258;2023-03-14T04:26:55;3.50;;;1.95;;
65156;SDS011;52745;49.794;18.258;2023-03-14T04:29:22;5.20;;;2.17;;
65156;SDS011;52745;49.794;18.258;2023-03-14T04:31:50;3.85;;;1.98;;
65156;SDS011;52745;49.794;18.258;2023-03-14T04:34:20;3.92;;;1.90;;
65156;SDS011;52745;49.794;18.258;2023-03-14T04:36:52;3.28;;;1.75;;
65156;SDS011;52745;49.794;18.258;2023-03-14T04:39:32;5.57;;;2.20;;
65156;SDS011;52745;49.794;18.258;2023-03-14T04:42:18;6.15;;;2.20;;
65156;SDS011;52745;49.794;18.258;2023-03-14T04:44:44;6.38;;;2.33;;
65156;SDS011;52745;49.794;18.258;2023-03-14T04:47:16;5.78;;;2.25;;
65156;SDS011;52745;49.794;18.258;2023-03-14T04:49:49;4.30;;;2.10;;
65156;SDS011;52745;49.794;18.258;2023-03-14T04:52:17;8.27;;;2.00;;
65156;SDS011;52745;49.794;18.258;2023-03-14T04:54:44;4.40;;;2.00;;
65156;SDS011;52745;49.794;18.258;2023-03-14T04:57:11;5.13;;;2.05;;
65156;SDS011;52745;49.794;18.258;2023-03-14T04:59:39;5.45;;;2.40;;
65156;SDS011;52745;49.794;18.258;2023-03-14T05:02:21;4.40;;;2.53;;
65156;SDS011;52745;49.794;18.258;2023-03-14T05:05:08;6.22;;;2.50;;
65156;SDS011;52745;49.794;18.258;2023-03-14T05:07:43;5.75;;;2.72;;
65156;SDS011;52745;49.794;18.258;2023-03-14T05:10:30;5.97;;;2.20;;
65156;SDS011;52745;49.794;18.258;2023-03-14T05:13:27;5.88;;;2.00;;
65156;SDS011;52745;49.794;18.258;2023-03-14T05:16:07;6.68;;;2.47;;
65156;SDS011;52745;49.794;18.258;2023-03-14T05:19:02;6.55;;;2.72;;
65156;SDS011;52745;49.794;18.258;2023-03-14T05:21:39;4.95;;;2.20;;
65156;SDS011;52745;49.794;18.258;2023-03-14T05:24:19;7.22;;;2.15;;
65156;SDS011;52745;49.794;18.258;2023-03-14T05:27:07;5.47;;;2.33;;
65156;SDS011;52745;49.794;18.258;2023-03-14T05:30:07;3.78;;;2.20;;
65156;SDS011;52745;49.794;18.258;2023-03-14T05:32:57;4.93;;;2.15;;
65156;SDS011;52745;49.794;18.258;2023-03-14T05:35:39;4.65;;;2.08;;
65156;SDS011;52745;49.794;18.258;2023-03-14T05:38:25;5.05;;;2.15;;
65156;SDS011;52745;49.794;18.258;2023-03-14T05:41:09;3.88;;;2.20;;
65156;SDS011;52745;49.794;18.258;2023-03-14T05:43:52;3.05;;;2.00;;
65156;SDS011;52745;49.794;18.258;2023-03-14T05:46:48;3.65;;;2.28;;
65156;SDS011;52745;49.794;18.258;2023-03-14T05:49:41;6.15;;;2.45;;
65156;SDS011;52745;49.794;18.258;2023-03-14T05:52:13;6.20;;;2.50;;
65156;SDS011;52745;49.794;18.258;2023-03-14T05:54:48;3.70;;;1.90;;
65156;SDS011;52745;49.794;18.258;2023-03-14T05:57:33;6.90;;;2.40;;
65156;SDS011;52745;49.794;18.258;2023-03-14T06:00:22;5.63;;;2.47;;
65156;SDS011;52745;49.794;18.258;2023-03-14T06:03:04;7.07;;;2.33;;
65156;SDS011;52745;49.794;18.258;2023-03-14T06:05:36;6.60;;;2.40;;
65156;SDS011;52745;49.794;18.258;2023-03-14T06:08:04;6.47;;;2.28;;
65156;SDS011;52745;49.794;18.258;2023-03-14T06:10:32;5.03;;;2.75;;
65156;SDS011;52745;49.794;18.258;2023-03-14T06:13:01;10.52;;;2.40;;
65156;SDS011;52745;49.794;18.258;2023-03-14T06:15:28;4.40;;;2.53;;
65156;SDS011;52745;49.794;18.258;2023-03-14T06:17:57;5.45;;;2.20;;
65156;SDS011;52745;49.794;18.258;2023-03-14T06:20:25;4.50;;;2.28;;
65156;SDS011;52745;49.794;18.258;2023-03-14T06:22:52;5.72;;;2.67;;
65156;SDS011;52745;49.794;18.258;2023-03-14T06:25:19;4.60;;;2.50;;
65156;SDS011;52745;49.794;18.258;2023-03-14T06:27:50;4.15;;;2.33;;
65156;SDS011;52745;49.794;18.258;2023-03-14T06:30:17;3.20;;;2.03;;
65156;SDS011;52745;49.794;18.258;2023-03-14T06:32:45;4.68;;;2.38;;
65156;SDS011;52745;49.794;18.258;2023-03-14T06:35:14;5.72;;;2.58;;
65156;SDS011;52745;49.794;18.258;2023-03-14T06:37:43;4.47;;;2.08;;
65156;SDS011;52745;49.794;18.258;2023-03-14T06:40:11;3.90;;;2.00;;
65156;SDS011;52745;49.794;18.258;2023-03-14T06:43:08;5.18;;;2.22;;
65156;SDS011;52745;49.794;18.258;2023-03-14T06:45:36;5.75;;;2.10;;
65156;SDS011;52745;49.794;18.258;2023-03-14T06:48:04;3.90;;;2.10;;
65156;SDS011;52745;49.794;18.258;2023-03-14T06:50:37;11.55;;;2.67;;
65156;SDS011;52745;49.794;18.258;2023-03-14T06:53:04;6.00;;;2.30;;
65156;SDS011;52745;49.794;18.258;2023-03-14T06:55:33;5.53;;;2.20;;
65156;SDS011;52745;49.794;18.258;2023-03-14T06:58:00;4.20;;;2.20;;
65156;SDS011;52745;49.794;18.258;2023-03-14T07:00:27;5.05;;;2.70;;
65156;SDS011;52745;49.794;18.258;2023-03-14T07:02:56;4.00;;;2.10;;
65156;SDS011;52745;49.794;18.258;2023-03-14T07:05:29;5.68;;;2.33;;
65156;SDS011;52745;49.794;18.258;2023-03-14T07:07:56;5.72;;;2.05;;
65156;SDS011;52745;49.794;18.258;2023-03-14T07:10:24;4.63;;;2.13;;
65156;SDS011;52745;49.794;18.258;2023-03-14T07:12:51;6.22;;;2.20;;
65156;SDS011;52745;49.794;18.258;2023-03-14T07:15:19;6.05;;;2.20;;
65156;SDS011;52745;49.794;18.258;2023-03-14T07:17:51;3.97;;;2.10;;
65156;SDS011;52745;49.794;18.258;2023-03-14T07:20:20;4.80;;;2.00;;
65156;SDS011;52745;49.794;18.258;2023-03-14T07:22:48;7.13;;;2.10;;
65156;SDS011;52745;49.794;18.258;2023-03-14T07:25:16;5.47;;;2.40;;
65156;SDS011;52745;49.794;18.258;2023-03-14T07:27:44;7.38;;;2.15;;
65156;SDS011;52745;49.794;18.258;2023-03-14T07:30:12;6.13;;;2.10;;
65156;SDS011;52745;49.794;18.258;2023-03-14T07:32:39;5.07;;;2.17;;
65156;SDS011;52745;49.794;18.258;2023-03-14T07:35:06;4.75;;;2.08;;
65156;SDS011;52745;49.794;18.258;2023-03-14T07:37:36;3.53;;;1.77;;
65156;SDS011;52745;49.794;18.258;2023-03-14T07:40:04;2.95;;;1.90;;
65156;SDS011;52745;49.794;18.258;2023-03-14T07:42:33;3.80;;;1.98;;
65156;SDS011;52745;49.794;18.258;2023-03-14T07:45:18;7.38;;;2.00;;
65156;SDS011;52745;49.794;18.258;2023-03-14T07:47:45;3.47;;;1.88;;
65156;SDS011;52745;49.794;18.258;2023-03-14T07:50:12;7.78;;;2.05;;
65156;SDS011;52745;49.794;18.258;2023-03-14T07:52:39;4.95;;;2.10;;
65156;SDS011;52745;49.794;18.258;2023-03-14T07:55:05;3.15;;;1.80;;
65156;SDS011;52745;49.794;18.258;2023-03-14T07:57:32;9.27;;;2.50;;
65156;SDS011;52745;49.794;18.258;2023-03-14T07:59:59;3.35;;;2.00;;
65156;SDS011;52745;49.794;18.258;2023-03-14T08:02:26;5.55;;;2.13;;
65156;SDS011;52745;49.794;18.258;2023-03-14T08:04:52;4.22;;;2.00;;
65156;SDS011;52745;49.794;18.258;2023-03-14T08:07:19;4.55;;;1.90;;
65156;SDS011;52745;49.794;18.258;2023-03-14T08:09:46;6.85;;;2.08;;
65156;SDS011;52745;49.794;18.258;2023-03-14T08:12:12;5.78;;;2.17;;
65156;SDS011;52745;49.794;18.258;2023-03-14T08:14:39;4.50;;;1.73;;
65156;SDS011;52745;49.794;18.258;2023-03-14T08:17:06;4.10;;;1.90;;
65156;SDS011;52745;49.794;18.258;2023-03-14T08:19:34;7.00;;;2.00;;
65156;SDS011;52745;49.794;18.258;2023-03-14T08:22:01;7.07;;;2.00;;
65156;SDS011;52745;49.794;18.258;2023-03-14T08:24:28;7.07;;;2.13;;
65156;SDS011;52745;49.794;18.258;2023-03-14T08:26:55;6.75;;;2.47;;
65156;SDS011;52745;49.794;18.258;2023-03-14T08:29:21;3.70;;;1.73;;
65156;SDS011;52745;49.794;18.258;2023-03-14T08:31:48;3.15;;;1.90;;
65156;SDS011;52745;49.794;18.258;2023-03-14T08:34:15;2.78;;;1.98;;
65156;SDS011;52745;49.794;18.258;2023-03-14T08:36:42;4.03;;;2.00;;
65156;SDS011;52745;49.794;18.258;2023-03-14T08:39:09;4.72;;;2.20;;
65156;SDS011;52745;49.794;18.258;2023-03-14T08:41:36;5.47;;;2.33;;
65156;SDS011;52745;49.794;18.258;2023-03-14T08:44:10;4.38;;;2.17;;
65156;SDS011;52745;49.794;18.258;2023-03-14T08:46:39;4.80;;;2.45;;
65156;SDS011;52745;49.794;18.258;2023-03-14T08:49:06;6.03;;;2.20;;
65156;SDS011;52745;49.794;18.258;2023-03-14T08:51:33;7.43;;;2.60;;
65156;SDS011;52745;49.794;18.258;2023-03-14T08:53:59;5.72;;;2.20;;
65156;SDS011;52745;49.794;18.258;2023-03-14T08:56:26;4.55;;;2.25;;
65156;SDS011;52745;49.794;18.258;2023-03-14T08:58:53;5.60;;;2.10;;
65156;SDS011;52745;49.794;18.258;2023-03-14T09:01:19;6.07;;;2.30;;
65156;SDS011;52745;49.794;18.258;2023-03-14T09:03:50;6.05;;;2.55;;
65156;SDS011;52745;49.794;18.258;2023-03-14T09:06:16;3.80;;;2.05;;
65156;SDS011;52745;49.794;18.258;2023-03-14T09:08:44;7.05;;;2.47;;
65156;SDS011;52745;49.794;18.258;2023-03-14T09:11:11;3.72;;;2.13;;
65156;SDS011;52745;49.794;18.258;2023-03-14T09:13:38;5.20;;;2.28;;
65156;SDS011;52745;49.794;18.258;2023-03-14T09:16:05;4.35;;;2.22;;
65156;SDS011;52745;49.794;18.258;2023-03-14T09:18:33;5.72;;;2.35;;
65156;SDS011;52745;49.794;18.258;2023-03-14T09:21:00;4.53;;;2.10;;
65156;SDS011;52745;49.794;18.258;2023-03-14T09:23:26;4.70;;;2.47;;
65156;SDS011;52745;49.794;18.258;2023-03-14T09:25:56;3.83;;;2.20;;
65156;SDS011;52745;49.794;18.258;2023-03-14T09:28:24;4.60;;;2.30;;
65156;SDS011;52745;49.794;18.258;2023-03-14T09:30:52;5.72;;;2.10;;
65156;SDS011;52745;49.794;18.258;2023-03-14T09:33:18;4.88;;;2.42;;
65156;SDS011;52745;49.794;18.258;2023-03-14T09:35:45;3.80;;;2.22;;
65156;SDS011;52745;49.794;18.258;2023-03-14T09:38:12;5.55;;;2.67;;
65156;SDS011;52745;49.794;18.258;2023-03-14T09:40:40;3.72;;;2.20;;
65156;SDS011;52745;49.794;18.258;2023-03-14T09:43:09;4.78;;;2.28;;
65156;SDS011;52745;49.794;18.258;2023-03-14T09:45:39;5.63;;;2.50;;
65156;SDS011;52745;49.794;18.258;2023-03-14T09:48:27;4.75;;;2.40;;
65156;SDS011;52745;49.794;18.258;2023-03-14T09:50:57;5.60;;;2.50;;
65156;SDS011;52745;49.794;18.258;2023-03-14T09:53:26;5.82;;;2.42;;
65156;SDS011;52745;49.794;18.258;2023-03-14T09:56:09;4.68;;;2.30;;
65156;SDS011;52745;49.794;18.258;2023-03-14T09:58:50;4.47;;;3.00;;
65156;SDS011;52745;49.794;18.258;2023-03-14T10:01:31;6.97;;;2.50;;
65156;SDS011;52745;49.794;18.258;2023-03-14T10:04:00;4.85;;;2.40;;
65156;SDS011;52745;49.794;18.258;2023-03-14T10:06:33;5.07;;;2.45;;
65156;SDS011;52745;49.794;18.258;2023-03-14T10:09:01;5.85;;;2.33;;
65156;SDS011;52745;49.794;18.258;2023-03-14T10:11:28;3.28;;;2.20;;
65156;SDS011;52745;49.794;18.258;2023-03-14T10:14:03;6.07;;;2.42;;
65156;SDS011;52745;49.794;18.258;2023-03-14T10:16:34;6.35;;;2.40;;
65156;SDS011;52745;49.794;18.258;2023-03-14T10:19:07;8.40;;;2.75;;
65156;SDS011;52745;49.794;18.258;2023-03-14T10:21:38;4.63;;;2.30;;
65156;SDS011;52745;49.794;18.258;2023-03-14T10:24:26;5.20;;;2.60;;
65156;SDS011;52745;49.794;18.258;2023-03-14T10:27:03;7.25;;;2.70;;
65156;SDS011;52745;49.794;18.258;2023-03-14T10:29:33;7.90;;;3.55;;
65156;SDS011;52745;49.794;18.258;2023-03-14T10:32:01;5.88;;;2.42;;
65156;SDS011;52745;49.794;18.258;2023-03-14T10:34:31;5.05;;;2.55;;
65156;SDS011;52745;49.794;18.258;2023-03-14T10:39:40;4.72;;;2.58;;
65156;SDS011;52745;49.794;18.258;2023-03-14T10:42:25;5.10;;;2.72;;
65156;SDS011;52745;49.794;18.258;2023-03-14T10:45:02;6.05;;;2.50;;
65156;SDS011;52745;49.794;18.258;2023-03-14T10:47:32;5.10;;;2.63;;
65156;SDS011;52745;49.794;18.258;2023-03-14T10:50:21;4.90;;;2.50;;
65156;SDS011;52745;49.794;18.258;2023-03-14T10:52:51;5.57;;;2.50;;
65156;SDS011;52745;49.794;18.258;2023-03-14T10:55:19;7.75;;;2.67;;
65156;SDS011;52745;49.794;18.258;2023-03-14T10:57:47;5.20;;;2.83;;
65156;SDS011;52745;49.794;18.258;2023-03-14T11:00:17;6.70;;;2.47;;
65156;SDS011;52745;49.794;18.258;2023-03-14T11:03:29;4.57;;;2.47;;
65156;SDS011;52745;49.794;18.258;2023-03-14T11:05:43;6.40;;;2.97;;
65156;SDS011;52745;49.794;18.258;2023-03-14T11:08:20;6.82;;;3.10;;
65156;SDS011;52745;49.794;18.258;2023-03-14T11:11:07;8.15;;;3.50;;
65156;SDS011;52745;49.794;18.258;2023-03-14T11:22:28;8.60;;;4.45;;
65156;SDS011;52745;49.794;18.258;2023-03-14T11:27:55;6.43;;;3.10;;
65156;SDS011;52745;49.794;18.258;2023-03-14T11:33:15;4.82;;;2.75;;
65156;SDS011;52745;49.794;18.258;2023-03-14T11:41:30;8.15;;;3.05;;
65156;SDS011;52745;49.794;18.258;2023-03-14T11:44:03;4.78;;;2.60;;
65156;SDS011;52745;49.794;18.258;2023-03-14T11:46:38;3.20;;;2.20;;
65156;SDS011;52745;49.794;18.258;2023-03-14T11:49:21;4.28;;;2.10;;
65156;SDS011;52745;49.794;18.258;2023-03-14T11:51:57;4.75;;;2.08;;
65156;SDS011;52745;49.794;18.258;2023-03-14T11:57:03;4.18;;;2.13;;
65156;SDS011;52745;49.794;18.258;2023-03-14T12:08:01;2.85;;;1.70;;
65156;SDS011;52745;49.794;18.258;2023-03-14T12:13:20;3.05;;;2.00;;
65156;SDS011;52745;49.794;18.258;2023-03-14T12:18:21;4.05;;;1.90;;
65156;SDS011;52745;49.794;18.258;2023-03-14T12:21:00;3.70;;;1.88;;
65156;SDS011;52745;49.794;18.258;2023-03-14T12:26:13;3.72;;;2.25;;
65156;SDS011;52745;49.794;18.258;2023-03-14T12:28:44;3.40;;;2.45;;
65156;SDS011;52745;49.794;18.258;2023-03-14T12:42:11;5.25;;;1.90;;
65156;SDS011;52745;49.794;18.258;2023-03-14T12:44:42;3.58;;;2.20;;
65156;SDS011;52745;49.794;18.258;2023-03-14T12:49:47;3.65;;;2.08;;
65156;SDS011;52745;49.794;18.258;2023-03-14T12:52:22;4.43;;;2.20;;
65156;SDS011;52745;49.794;18.258;2023-03-14T12:55:02;3.10;;;2.03;;
65156;SDS011;52745;49.794;18.258;2023-03-14T13:00:35;8.70;;;2.50;;
65156;SDS011;52745;49.794;18.258;2023-03-14T13:03:17;2.97;;;2.15;;
65156;SDS011;52745;49.794;18.258;2023-03-14T13:08:32;2.63;;;1.63;;
65156;SDS011;52745;49.794;18.258;2023-03-14T13:11:02;3.05;;;2.00;;
65156;SDS011;52745;49.794;18.258;2023-03-14T13:13:34;3.72;;;2.45;;
65156;SDS011;52745;49.794;18.258;2023-03-14T13:16:03;7.47;;;2.30;;
65156;SDS011;52745;49.794;18.258;2023-03-14T13:21:06;2.78;;;2.13;;
65156;SDS011;52745;49.794;18.258;2023-03-14T13:23:39;4.38;;;2.58;;
65156;SDS011;52745;49.794;18.258;2023-03-14T13:26:10;4.00;;;2.63;;
65156;SDS011;52745;49.794;18.258;2023-03-14T13:28:40;6.65;;;4.20;;
65156;SDS011;52745;49.794;18.258;2023-03-14T13:31:22;6.50;;;2.72;;
65156;SDS011;52745;49.794;18.258;2023-03-14T13:34:00;4.05;;;2.65;;
65156;SDS011;52745;49.794;18.258;2023-03-14T13:36:29;5.43;;;2.78;;
65156;SDS011;52745;49.794;18.258;2023-03-14T13:38:59;4.63;;;2.60;;
65156;SDS011;52745;49.794;18.258;2023-03-14T13:41:28;6.13;;;2.60;;
65156;SDS011;52745;49.794;18.258;2023-03-14T13:44:00;4.50;;;2.90;;
65156;SDS011;52745;49.794;18.258;2023-03-14T13:46:33;3.63;;;2.53;;
65156;SDS011;52745;49.794;18.258;2023-03-14T13:49:02;4.75;;;2.70;;
65156;SDS011;52745;49.794;18.258;2023-03-14T13:51:30;3.40;;;2.42;;
65156;SDS011;52745;49.794;18.258;2023-03-14T13:54:01;6.03;;;3.33;;
65156;SDS011;52745;49.794;18.258;2023-03-14T13:56:31;4.88;;;2.70;;
65156;SDS011;52745;49.794;18.258;2023-03-14T13:58:59;5.03;;;2.92;;
65156;SDS011;52745;49.794;18.258;2023-03-14T14:01:29;6.22;;;2.90;;
65156;SDS011;52745;49.794;18.258;2023-03-14T14:04:06;4.38;;;2.70;;
65156;SDS011;52745;49.794;18.258;2023-03-14T14:06:36;5.07;;;3.15;;
65156;SDS011;52745;49.794;18.258;2023-03-14T14:09:12;4.35;;;2.95;;
65156;SDS011;52745;49.794;18.258;2023-03-14T14:11:46;4.05;;;2.65;;
65156;SDS011;52745;49.794;18.258;2023-03-14T14:14:19;5.15;;;2.75;;
65156;SDS011;52745;49.794;18.258;2023-03-14T14:16:50;7.97;;;3.22;;
65156;SDS011;52745;49.794;18.258;2023-03-14T14:19:18;3.92;;;2.78;;
65156;SDS011;52745;49.794;18.258;2023-03-14T14:21:48;5.18;;;2.88;;
65156;SDS011;52745;49.794;18.258;2023-03-14T14:24:15;5.55;;;2.10;;
65156;SDS011;52745;49.794;18.258;2023-03-14T14:26:58;4.28;;;2.55;;
65156;SDS011;52745;49.794;18.258;2023-03-14T14:29:28;5.45;;;3.30;;
65156;SDS011;52745;49.794;18.258;2023-03-14T14:35:06;5.47;;;2.78;;
65156;SDS011;52745;49.794;18.258;2023-03-14T14:37:28;4.80;;;2.83;;
65156;SDS011;52745;49.794;18.258;2023-03-14T14:39:58;4.90;;;3.08;;
65156;SDS011;52745;49.794;18.258;2023-03-14T14:42:27;3.95;;;2.97;;
65156;SDS011;52745;49.794;18.258;2023-03-14T14:44:57;4.97;;;2.80;;
65156;SDS011;52745;49.794;18.258;2023-03-14T14:47:26;5.75;;;2.78;;
65156;SDS011;52745;49.794;18.258;2023-03-14T14:49:58;4.30;;;3.00;;
65156;SDS011;52745;49.794;18.258;2023-03-14T14:52:36;6.30;;;3.10;;
65156;SDS011;52745;49.794;18.258;2023-03-14T14:55:18;5.63;;;3.00;;
65156;SDS011;52745;49.794;18.258;2023-03-14T14:57:53;4.53;;;2.65;;
65156;SDS011;52745;49.794;18.258;2023-03-14T15:00:21;4.18;;;2.58;;
65156;SDS011;52745;49.794;18.258;2023-03-14T15:02:51;4.07;;;2.35;;
65156;SDS011;52745;49.794;18.258;2023-03-14T15:05:22;3.40;;;2.33;;
65156;SDS011;52745;49.794;18.258;2023-03-14T15:07:50;5.07;;;2.75;;
65156;SDS011;52745;49.794;18.258;2023-03-14T15:10:18;6.07;;;2.33;;
65156;SDS011;52745;49.794;18.258;2023-03-14T15:12:47;3.47;;;2.10;;
65156;SDS011;52745;49.794;18.258;2023-03-14T15:15:14;4.82;;;2.67;;
65156;SDS011;52745;49.794;18.258;2023-03-14T15:17:42;5.15;;;2.50;;
65156;SDS011;52745;49.794;18.258;2023-03-14T15:20:10;4.63;;;2.50;;
65156;SDS011;52745;49.794;18.258;2023-03-14T15:22:40;3.50;;;2.42;;
65156;SDS011;52745;49.794;18.258;2023-03-14T15:25:07;4.32;;;2.97;;
65156;SDS011;52745;49.794;18.258;2023-03-14T15:27:36;3.63;;;2.60;;
65156;SDS011;52745;49.794;18.258;2023-03-14T15:30:10;3.88;;;2.90;;
65156;SDS011;52745;49.794;18.258;2023-03-14T15:32:38;4.18;;;2.75;;
65156;SDS011;52745;49.794;18.258;2023-03-14T15:35:05;3.75;;;2.60;;
65156;SDS011;52745;49.794;18.258;2023-03-14T15:37:34;3.38;;;2.50;;
65156;SDS011;52745;49.794;18.258;2023-03-14T15:40:02;3.60;;;2.50;;
65156;SDS011;52745;49.794;18.258;2023-03-14T15:42:36;3.28;;;2.20;;
65156;SDS011;52745;49.794;18.258;2023-03-14T15:45:03;3.35;;;2.28;;
65156;SDS011;52745;49.794;18.258;2023-03-14T15:47:30;4.60;;;2.92;;
65156;SDS011;52745;49.794;18.258;2023-03-14T15:49:58;8.13;;;3.60;;
65156;SDS011;52745;49.794;18.258;2023-03-14T15:52:25;4.53;;;2.13;;
65156;SDS011;52745;49.794;18.258;2023-03-14T15:54:51;9.02;;;3.58;;
65156;SDS011;52745;49.794;18.258;2023-03-14T15:57:18;3.92;;;2.88;;
65156;SDS011;52745;49.794;18.258;2023-03-14T15:59:45;3.00;;;2.00;;
65156;SDS011;52745;49.794;18.258;2023-03-14T16:02:12;3.47;;;2.00;;
65156;SDS011;52745;49.794;18.258;2023-03-14T16:04:39;4.13;;;1.75;;
65156;SDS011;52745;49.794;18.258;2023-03-14T16:07:06;4.63;;;1.90;;
65156;SDS011;52745;49.794;18.258;2023-03-14T16:09:33;9.80;;;3.92;;
65156;SDS011;52745;49.794;18.258;2023-03-14T16:12:00;11.27;;;3.55;;
65156;SDS011;52745;49.794;18.258;2023-03-14T16:14:27;6.93;;;2.58;;